EGCN/DSA METAR and TAF weather

Enter ICAO airport designator
Station Type Date Time Source
EGCN METAR 2018/04/21 20:50 UTC NOAA

EGCN 212050Z 15008KT CAVOK 17/13 Q1014


Station Type Date Time Source
EGCN Decoded METAR 2018/04/21 20:50 UTC NOAA

Station name not available
Apr 21, 2018 - 04:50 PM EDT / 2018.04.21 2050 UTC
Wind: from the SSE (150 degrees) at 9 MPH (8 KT):0
Visibility: greater than 7 mile(s):0
Temperature: 62 F (17 C)
Dew Point: 55 F (13 C)
Relative Humidity: 77%
Pressure (altimeter): 29.94 in. Hg (1014 hPa)
ob: EGCN 212050Z 15008KT CAVOK 17/13 Q1014
cycle: 21

Station Type Date Time Source
EGCN TAF 2018/04/21 19:00 UTC NOAA

TAF
AMD EGCN 211902Z 2119/2218 18008KT 9999 FEW035
TEMPO 2119/2123 8000 PROB30
TEMPO 2123/2203 4000 TSRAGS
BECMG 2208/2211 24010KT
TEMPO 2210/2213 5000 RA


Example: see airport list